createdAt,value
2019-02-17T00:01:32.296Z,24.75
2019-02-17T00:04:00.577Z,23.57
2019-02-17T00:06:28.834Z,24.05
2019-02-17T00:08:57.135Z,23.38
2019-02-17T00:11:25.406Z,23.27
2019-02-17T00:13:53.691Z,21.17
2019-02-17T00:16:21.957Z,24.20
2019-02-17T00:18:50.239Z,22.77
2019-02-17T00:21:18.522Z,23.47
2019-02-17T00:23:46.853Z,26.15
2019-02-17T00:26:15.160Z,26.30
2019-02-17T00:28:43.419Z,24.87
2019-02-17T00:31:11.699Z,21.82
2019-02-17T00:33:39.986Z,25.85
2019-02-17T00:36:08.285Z,28.67
2019-02-17T00:38:36.549Z,24.40
2019-02-17T00:41:04.863Z,27.60
2019-02-17T00:43:33.143Z,23.15
2019-02-17T00:46:01.411Z,23.15
2019-02-17T00:48:29.695Z,23.77
2019-02-17T00:50:57.966Z,24.30
2019-02-17T00:53:26.281Z,25.20
2019-02-17T00:55:54.628Z,25.48
2019-02-17T00:58:22.908Z,22.43
2019-02-17T01:00:51.167Z,22.95
2019-02-17T01:03:19.458Z,24.43
2019-02-17T01:05:47.716Z,23.22
2019-02-17T01:08:15.982Z,28.30
2019-02-17T01:10:44.259Z,26.50
2019-02-17T01:13:12.531Z,24.45
2019-02-17T01:15:40.813Z,22.85
2019-02-17T01:18:09.162Z,23.92
2019-02-17T01:20:37.447Z,26.35
2019-02-17T01:23:05.712Z,20.88
2019-02-17T01:25:34.112Z,27.22
2019-02-17T01:28:02.379Z,24.67
2019-02-17T01:30:30.639Z,27.60
2019-02-17T01:32:58.923Z,23.98
2019-02-17T01:35:28.659Z,22.60
2019-02-17T01:37:58.302Z,29.70
2019-02-17T01:40:26.675Z,23.70
2019-02-17T01:42:54.955Z,24.35
2019-02-17T01:45:23.235Z,21.70
2019-02-17T01:47:51.506Z,21.73
2019-02-17T01:50:19.777Z,25.32
2019-02-17T01:52:48.055Z,23.90
2019-02-17T01:55:16.327Z,20.25
2019-02-17T01:57:44.602Z,23.50
2019-02-17T02:00:14.691Z,24.55
2019-02-17T02:02:43.044Z,22.67
2019-02-17T02:05:11.367Z,25.90
2019-02-17T02:07:39.623Z,25.72
2019-02-17T02:10:09.643Z,25.75
2019-02-17T02:12:37.907Z,24.55
2019-02-17T02:15:09.583Z,26.60
2019-02-17T02:17:37.847Z,19.05
2019-02-17T02:20:09.563Z,23.25
2019-02-17T02:22:37.831Z,24.02
2019-02-17T02:25:07.259Z,21.17
2019-02-17T02:27:35.526Z,21.62
2019-02-17T02:30:05.432Z,22.52
2019-02-17T02:32:33.817Z,18.73
2019-02-17T02:35:02.091Z,18.25
2019-02-17T02:37:30.374Z,25.40
2019-02-17T02:39:58.660Z,20.05
2019-02-17T02:42:26.932Z,23.27
2019-02-17T02:44:55.190Z,21.93
2019-02-17T02:47:24.419Z,22.73
2019-02-17T02:49:52.691Z,26.27
2019-02-17T02:52:20.959Z,24.95
2019-02-17T02:54:49.273Z,21.48
2019-02-17T02:57:17.627Z,23.18
2019-02-17T02:59:52.423Z,25.60
2019-02-17T03:02:15.889Z,29.92
2019-02-17T03:04:44.167Z,32.60
2019-02-17T03:07:12.431Z,27.25
2019-02-17T03:09:40.774Z,31.77
2019-02-17T03:12:09.047Z,26.15
2019-02-17T03:14:37.339Z,29.50
2019-02-17T03:17:05.606Z,27.37
2019-02-17T03:19:33.886Z,28.45
2019-02-17T03:22:02.173Z,24.40
2019-02-17T03:24:30.518Z,27.67
2019-02-17T03:26:58.864Z,25.48
2019-02-17T03:29:27.136Z,26.10
2019-02-17T03:31:55.728Z,27.90
2019-02-17T03:34:24.047Z,27.32
2019-02-17T03:36:52.332Z,30.88
2019-02-17T03:39:20.599Z,25.60
2019-02-17T03:41:48.871Z,31.17
2019-02-17T03:44:17.147Z,26.40
2019-02-17T03:46:45.496Z,26.20
2019-02-17T03:49:13.768Z,24.25
2019-02-17T03:51:42.308Z,26.25
2019-02-17T03:54:10.571Z,28.10
2019-02-17T03:56:38.851Z,22.75
2019-02-17T03:59:07.126Z,27.52
2019-02-17T04:01:35.388Z,27.22
2019-02-17T04:04:03.664Z,30.25
2019-02-17T04:06:32.014Z,30.37
2019-02-17T04:09:00.290Z,28.90
2019-02-17T04:11:28.558Z,29.35
2019-02-17T04:13:56.864Z,29.30
2019-02-17T04:16:25.124Z,27.82
2019-02-17T04:18:53.391Z,26.50
2019-02-17T04:21:21.687Z,25.88
2019-02-17T04:23:49.964Z,30.00
2019-02-17T04:26:18.271Z,26.30
2019-02-17T04:28:46.635Z,29.50
2019-02-17T04:31:14.894Z,28.85
2019-02-17T04:33:43.155Z,25.02
2019-02-17T04:36:11.455Z,25.50
2019-02-17T04:38:39.744Z,31.95
2019-02-17T04:41:07.997Z,30.45
2019-02-17T04:43:36.349Z,28.35
2019-02-17T04:46:04.623Z,25.95
2019-02-17T04:48:32.968Z,29.20
2019-02-17T04:51:01.240Z,29.85
2019-02-17T04:53:29.592Z,32.93
2019-02-17T04:55:57.858Z,30.45
2019-02-17T04:58:26.142Z,32.13
2019-02-17T05:00:54.403Z,34.38
2019-02-17T05:03:22.683Z,34.53
2019-02-17T05:05:50.945Z,37.25
2019-02-17T05:08:19.227Z,35.70
2019-02-17T05:10:47.494Z,40.38
2019-02-17T05:13:15.755Z,37.10
2019-02-17T05:15:44.026Z,35.65
2019-02-17T05:18:12.299Z,39.33
2019-02-17T05:20:40.658Z,37.00
2019-02-17T05:23:28.434Z,39.83
2019-02-17T05:25:56.808Z,35.35
2019-02-17T05:28:25.077Z,34.53
2019-02-17T05:30:53.667Z,33.83
2019-02-17T05:33:22.017Z,36.60
2019-02-17T05:35:50.354Z,34.80
2019-02-17T05:38:18.612Z,31.77
2019-02-17T05:40:46.891Z,31.45
2019-02-17T05:43:15.150Z,38.50
2019-02-17T05:45:43.407Z,30.77
2019-02-17T05:48:11.709Z,36.87
2019-02-17T05:50:40.036Z,33.78
2019-02-17T05:53:08.311Z,32.78
2019-02-17T05:55:36.578Z,35.45
2019-02-17T05:58:05.764Z,34.58
2019-02-17T06:00:34.890Z,34.80
2019-02-17T06:03:03.163Z,31.95
2019-02-17T06:05:31.425Z,35.48
2019-02-17T06:07:59.701Z,30.68
2019-02-17T06:10:28.265Z,36.60
2019-02-17T06:13:15.972Z,34.60
2019-02-17T06:15:44.227Z,35.03
2019-02-17T06:18:12.503Z,36.07
2019-02-17T06:20:40.776Z,35.05
2019-02-17T06:23:09.030Z,39.65
2019-02-17T06:25:37.299Z,33.42
2019-02-17T06:28:06.107Z,32.94
2019-02-17T06:30:34.384Z,39.18
2019-02-17T06:33:02.635Z,39.03
2019-02-17T06:35:30.915Z,35.17
2019-02-17T06:37:59.168Z,36.65
2019-02-17T06:40:27.475Z,36.48
2019-02-17T06:42:55.730Z,38.28
2019-02-17T06:45:23.997Z,37.60
2019-02-17T06:47:52.394Z,40.58
2019-02-17T06:50:20.710Z,37.50
2019-02-17T06:52:48.967Z,34.33
2019-02-17T06:55:18.913Z,34.55
2019-02-17T06:57:47.228Z,38.40
2019-02-17T07:00:17.143Z,38.15
2019-02-17T07:02:45.420Z,37.25
2019-02-17T07:05:30.014Z,35.28
2019-02-17T07:07:58.302Z,35.85
2019-02-17T07:10:26.563Z,35.55
2019-02-17T07:12:54.819Z,35.95
2019-02-17T07:15:23.122Z,35.13
2019-02-17T07:17:51.378Z,38.02
2019-02-17T07:20:19.643Z,38.10
2019-02-17T07:22:47.939Z,39.00
2019-02-17T07:25:16.199Z,36.50
2019-02-17T07:27:44.465Z,35.63
2019-02-17T07:30:12.834Z,35.35
2019-02-17T07:32:41.154Z,36.08
2019-02-17T07:35:09.450Z,34.70
2019-02-17T07:37:37.775Z,36.63
2019-02-17T07:40:07.371Z,33.08
2019-02-17T07:42:35.634Z,42.88
2019-02-17T07:45:05.551Z,35.40
2019-02-17T07:47:33.814Z,35.90
2019-02-17T07:50:02.122Z,42.35
2019-02-17T07:52:30.394Z,35.38
2019-02-17T07:54:58.650Z,37.03
2019-02-17T07:57:26.927Z,36.93
2019-02-17T07:59:55.253Z,39.60
2019-02-17T08:02:23.535Z,41.15
2019-02-17T08:04:51.791Z,42.08
2019-02-17T08:07:20.044Z,36.03
2019-02-17T08:09:48.320Z,40.45
2019-02-17T08:12:16.599Z,42.03
2019-02-17T08:14:44.878Z,38.83
2019-02-17T08:17:13.148Z,40.10
2019-02-17T08:19:41.410Z,42.48
2019-02-17T08:22:09.683Z,38.42
2019-02-17T08:24:38.002Z,40.08
2019-02-17T08:27:06.250Z,39.58
2019-02-17T08:29:34.520Z,39.18
2019-02-17T08:32:02.783Z,39.48
2019-02-17T08:34:31.065Z,36.63
2019-02-17T08:36:59.338Z,38.53
2019-02-17T08:39:27.618Z,45.95
2019-02-17T08:41:55.877Z,38.40
2019-02-17T08:44:24.162Z,42.15
2019-02-17T08:46:52.418Z,46.08
2019-02-17T08:49:20.690Z,43.10
2019-02-17T08:51:48.955Z,39.88
2019-02-17T08:54:17.210Z,39.90
2019-02-17T08:56:45.483Z,37.67
2019-02-17T08:59:13.742Z,38.60
2019-02-17T09:01:42.042Z,41.53
2019-02-17T09:04:10.331Z,38.25
2019-02-17T09:06:38.595Z,42.50
2019-02-17T09:09:06.930Z,38.35
2019-02-17T09:11:54.646Z,38.75
2019-02-17T09:14:22.974Z,46.50
2019-02-17T09:16:51.232Z,51.15
2019-02-17T09:19:19.505Z,47.05
2019-02-17T09:21:47.780Z,43.75
2019-02-17T09:24:16.091Z,43.25
2019-02-17T09:26:44.367Z,51.42
2019-02-17T09:29:12.653Z,44.20
2019-02-17T09:31:40.963Z,47.40
2019-02-17T09:34:09.250Z,43.10
2019-02-17T09:36:37.498Z,41.10
2019-02-17T09:39:08.007Z,46.30
2019-02-17T09:41:36.281Z,41.92
2019-02-17T09:44:04.546Z,38.58
2019-02-17T09:46:32.826Z,42.08
2019-02-17T09:49:01.086Z,34.83
2019-02-17T09:51:29.375Z,36.05
2019-02-17T09:53:57.646Z,39.05
2019-02-17T09:56:26.039Z,36.75
2019-02-17T09:58:54.403Z,41.30
2019-02-17T10:01:22.736Z,39.35
2019-02-17T10:03:51.018Z,35.15
2019-02-17T10:06:19.286Z,35.50
2019-02-17T10:08:47.578Z,34.48
2019-02-17T10:11:15.854Z,38.17
2019-02-17T10:13:44.111Z,36.25
2019-02-17T10:16:12.387Z,35.78
2019-02-17T10:18:40.724Z,30.35
2019-02-17T10:21:09.052Z,34.05
2019-02-17T10:23:37.314Z,34.53
2019-02-17T10:26:05.587Z,35.73
2019-02-17T10:28:42.069Z,34.35
2019-02-17T10:31:03.857Z,38.95
2019-02-17T10:33:32.122Z,34.45
2019-02-17T10:36:00.400Z,39.60
2019-02-17T10:38:28.667Z,36.42
2019-02-17T10:40:56.944Z,35.17
2019-02-17T10:43:25.219Z,39.60
2019-02-17T10:45:53.494Z,33.98
2019-02-17T10:48:21.766Z,33.00
2019-02-17T10:50:50.083Z,33.90
2019-02-17T10:53:18.339Z,34.33
2019-02-17T10:55:46.598Z,36.25
2019-02-17T10:58:14.944Z,36.27
2019-02-17T11:00:43.252Z,40.35
2019-02-17T11:03:11.526Z,34.27
2019-02-17T11:05:39.794Z,35.50
2019-02-17T11:08:08.078Z,33.85
2019-02-17T11:10:36.352Z,36.48
2019-02-17T11:13:04.615Z,31.12
2019-02-17T11:15:32.944Z,36.03
2019-02-17T11:18:01.255Z,34.85
2019-02-17T11:20:29.532Z,35.75
2019-02-17T11:22:57.813Z,36.42
2019-02-17T11:25:26.079Z,32.53
2019-02-17T11:27:54.356Z,34.05
2019-02-17T11:30:22.636Z,34.95
2019-02-17T11:32:57.943Z,33.63
2019-02-17T11:35:20.911Z,34.53
2019-02-17T11:37:49.224Z,31.00
2019-02-17T11:40:17.495Z,35.10
2019-02-17T11:42:45.756Z,31.17
2019-02-17T11:45:20.231Z,33.90
2019-02-17T11:47:48.571Z,32.33
2019-02-17T11:50:16.860Z,32.85
2019-02-17T11:52:45.194Z,30.97
2019-02-17T11:55:14.811Z,32.48
2019-02-17T11:57:43.080Z,31.20
2019-02-17T12:00:14.715Z,32.25
2019-02-17T12:02:42.967Z,29.72
2019-02-17T12:05:12.170Z,30.27
2019-02-17T12:07:40.444Z,31.77
2019-02-17T12:10:10.636Z,32.27
2019-02-17T12:12:39.034Z,32.13
2019-02-17T12:15:12.114Z,30.27
2019-02-17T12:17:40.376Z,32.13
2019-02-17T12:20:30.956Z,30.48
2019-02-17T12:23:00.881Z,31.33
2019-02-17T12:25:30.875Z,34.10
2019-02-17T12:28:00.847Z,29.52
2019-02-17T12:30:29.102Z,30.90
2019-02-17T12:32:57.394Z,28.70
2019-02-17T12:35:25.745Z,30.85
2019-02-17T12:37:54.026Z,31.55
2019-02-17T12:40:22.350Z,32.13
2019-02-17T12:42:51.174Z,32.13
2019-02-17T12:45:19.603Z,31.40
2019-02-17T12:47:57.564Z,30.37
2019-02-17T12:50:17.924Z,29.82
2019-02-17T12:52:47.733Z,26.77
2019-02-17T12:55:16.359Z,29.10
2019-02-17T12:57:44.619Z,30.23
2019-02-17T13:00:16.012Z,29.55
2019-02-17T13:02:44.292Z,25.95
2019-02-17T13:05:12.572Z,29.20
2019-02-17T13:07:42.716Z,28.02
2019-02-17T13:10:11.603Z,28.75
2019-02-17T13:12:39.886Z,27.05
2019-02-17T13:15:10.782Z,28.00
2019-02-17T13:17:39.078Z,27.65
2019-02-17T13:20:10.311Z,29.55
2019-02-17T13:25:09.222Z,27.60
2019-02-17T13:27:37.484Z,28.77
2019-02-17T13:30:09.089Z,28.17
2019-02-17T13:32:37.368Z,27.15
2019-02-17T13:35:05.643Z,26.70
2019-02-17T13:37:33.908Z,31.75
2019-02-17T13:40:02.236Z,29.30
2019-02-17T13:42:30.521Z,28.85
2019-02-17T13:44:58.859Z,27.65
2019-02-17T13:47:27.136Z,27.42
2019-02-17T13:49:55.403Z,26.35
2019-02-17T13:52:23.693Z,24.75
2019-02-17T13:54:52.045Z,29.25
2019-02-17T13:57:20.363Z,29.95
2019-02-17T13:59:48.646Z,33.42
2019-02-17T14:02:16.919Z,28.83
2019-02-17T14:04:45.191Z,31.12
2019-02-17T14:07:13.471Z,26.90
2019-02-17T14:09:41.741Z,29.67
2019-02-17T14:12:10.063Z,24.95
2019-02-17T14:14:38.845Z,29.70
2019-02-17T14:17:07.463Z,27.35
2019-02-17T14:19:35.768Z,29.85
2019-02-17T14:22:04.071Z,29.90
2019-02-17T14:24:32.348Z,28.77
2019-02-17T14:27:00.620Z,25.60
2019-02-17T14:29:28.906Z,27.87
2019-02-17T14:31:57.187Z,29.05
2019-02-17T14:34:25.495Z,29.50
2019-02-17T14:36:53.776Z,29.32
2019-02-17T14:39:22.130Z,26.07
2019-02-17T14:41:50.422Z,28.38
2019-02-17T14:44:18.738Z,24.70
2019-02-17T14:46:47.011Z,25.92
2019-02-17T14:49:15.287Z,25.90
2019-02-17T14:51:43.573Z,26.65
2019-02-17T14:54:11.833Z,29.87
2019-02-17T14:56:40.157Z,25.50
2019-02-17T14:59:08.417Z,27.80
2019-02-17T15:01:36.691Z,27.87
2019-02-17T15:04:08.906Z,23.83
2019-02-17T15:06:35.006Z,26.10
2019-02-17T15:09:05.138Z,27.35
2019-02-17T15:11:33.471Z,25.80
2019-02-17T15:14:01.837Z,25.65
2019-02-17T15:16:30.123Z,26.57
2019-02-17T15:18:58.407Z,23.35
2019-02-17T15:21:26.683Z,25.27
2019-02-17T15:23:55.039Z,21.90
2019-02-17T15:26:23.306Z,25.95
2019-02-17T15:28:51.655Z,23.92
2019-02-17T15:31:19.946Z,23.65
2019-02-17T15:33:48.239Z,27.32
2019-02-17T15:36:16.502Z,21.62
2019-02-17T15:38:44.787Z,26.02
2019-02-17T15:41:13.470Z,24.15
2019-02-17T15:43:41.864Z,26.15
2019-02-17T15:46:10.142Z,25.45
2019-02-17T15:48:38.409Z,24.10
2019-02-17T15:51:06.929Z,26.25
2019-02-17T15:53:35.454Z,24.87
2019-02-17T15:56:03.804Z,25.37
2019-02-17T15:58:32.079Z,24.02
2019-02-17T16:01:00.355Z,23.45
2019-02-17T16:03:28.623Z,25.02
2019-02-17T16:05:56.908Z,22.67
2019-02-17T16:08:25.170Z,23.00
2019-02-17T16:10:53.453Z,23.83
2019-02-17T16:13:21.725Z,21.07
2019-02-17T16:15:50.005Z,26.15
2019-02-17T16:18:18.280Z,22.70
2019-02-17T16:20:46.618Z,22.77
2019-02-17T16:23:14.886Z,25.10
2019-02-17T16:25:43.217Z,26.00
2019-02-17T16:28:11.507Z,22.37
2019-02-17T16:30:39.774Z,26.90
2019-02-17T16:33:08.060Z,24.98
2019-02-17T16:35:36.322Z,27.60
2019-02-17T16:38:04.603Z,26.30
2019-02-17T16:40:32.876Z,24.52
2019-02-17T16:43:01.237Z,25.40
2019-02-17T16:45:29.549Z,23.92
2019-02-17T16:47:57.827Z,21.23
2019-02-17T16:50:28.133Z,26.77
2019-02-17T16:52:56.429Z,21.62
2019-02-17T16:55:24.753Z,24.05
2019-02-17T16:57:53.059Z,22.27
2019-02-17T17:00:22.835Z,22.17
2019-02-17T17:02:55.225Z,26.27
2019-02-17T17:05:24.352Z,20.25
2019-02-17T17:07:52.615Z,22.98
2019-02-17T17:10:21.030Z,27.98
2019-02-17T17:12:49.297Z,25.80
2019-02-17T17:15:17.571Z,23.27
2019-02-17T17:17:45.846Z,21.30
2019-02-17T17:20:16.376Z,24.82
2019-02-17T17:22:44.640Z,25.20
2019-02-17T17:25:13.667Z,23.67
2019-02-17T17:27:41.935Z,21.65
2019-02-17T17:30:17.207Z,24.32
2019-02-17T17:32:45.470Z,25.97
2019-02-17T17:35:13.741Z,27.65
2019-02-17T17:37:42.014Z,26.90
2019-02-17T17:40:11.934Z,27.13
2019-02-17T17:42:40.219Z,26.77
2019-02-17T17:45:14.012Z,23.95
2019-02-17T17:47:42.275Z,24.10
2019-02-17T17:50:13.254Z,27.42
2019-02-17T17:52:41.550Z,24.45
2019-02-17T17:55:11.092Z,32.25
2019-02-17T17:57:39.359Z,29.10
2019-02-17T18:00:11.724Z,28.47
2019-02-17T18:02:39.988Z,28.20
2019-02-17T18:05:09.446Z,25.88
2019-02-17T18:07:38.023Z,27.27
2019-02-17T18:10:09.722Z,27.40
2019-02-17T18:12:38.001Z,23.87
2019-02-17T18:15:09.550Z,27.65
2019-02-17T18:17:37.906Z,24.77
2019-02-17T18:20:13.870Z,28.67
2019-02-17T18:22:42.233Z,22.77
2019-02-17T18:25:13.803Z,29.45
2019-02-17T18:27:42.086Z,27.42
2019-02-17T18:30:16.594Z,24.05
2019-02-17T18:32:45.255Z,24.15
2019-02-17T18:35:19.979Z,26.45
2019-02-17T18:37:43.632Z,27.10
2019-02-17T18:40:14.499Z,27.07
2019-02-17T18:42:43.461Z,27.15
2019-02-17T18:45:13.058Z,26.25
2019-02-17T18:47:41.344Z,25.72
2019-02-17T18:50:12.539Z,32.23
2019-02-17T18:55:10.909Z,23.25
2019-02-17T18:57:49.046Z,27.00
2019-02-17T19:00:12.639Z,25.77
2019-02-17T19:02:40.927Z,26.87
2019-02-17T19:05:11.140Z,26.57
2019-02-17T19:07:39.406Z,31.90
2019-02-17T19:10:11.095Z,28.10
2019-02-17T19:12:39.430Z,27.95
2019-02-17T19:15:14.727Z,26.15
2019-02-17T19:17:43.002Z,24.98
2019-02-17T19:20:20.075Z,28.20
2019-02-17T19:22:48.382Z,26.60
2019-02-17T19:25:16.705Z,30.00
2019-02-17T19:27:44.963Z,24.30
2019-02-17T19:30:14.874Z,26.57
2019-02-17T19:32:43.131Z,27.42
2019-02-17T19:35:13.758Z,29.95
2019-02-17T19:37:42.095Z,27.67
2019-02-17T19:40:12.671Z,29.65
2019-02-17T19:42:40.982Z,29.57
2019-02-17T19:45:11.642Z,26.23
2019-02-17T19:47:39.985Z,29.15
2019-02-17T19:50:10.863Z,27.73
2019-02-17T19:52:39.123Z,29.55
2019-02-17T19:55:09.051Z,29.00
2019-02-17T19:57:37.361Z,32.78
2019-02-17T20:00:18.712Z,34.58
2019-02-17T20:05:20.859Z,30.55
2019-02-17T20:07:49.205Z,31.85
2019-02-17T20:10:17.479Z,32.55
2019-02-17T20:12:45.755Z,32.50
2019-02-17T20:15:14.023Z,36.75
2019-02-17T20:17:42.299Z,33.55
2019-02-17T20:20:10.738Z,33.23
2019-02-17T20:22:39.106Z,27.87
2019-02-17T20:25:07.750Z,30.35
2019-02-17T20:27:36.079Z,33.28
2019-02-17T20:30:12.730Z,32.05
2019-02-17T20:32:41.044Z,31.05
2019-02-17T20:35:09.797Z,35.43
2019-02-17T20:37:38.107Z,32.35
2019-02-17T20:40:11.558Z,31.33
2019-02-17T20:42:39.884Z,30.02
2019-02-17T20:45:09.808Z,34.58
2019-02-17T20:47:38.066Z,31.85
2019-02-17T20:50:12.467Z,33.73
2019-02-17T20:52:40.758Z,36.23
2019-02-17T20:55:12.614Z,27.98
2019-02-17T20:57:41.011Z,32.78
2019-02-17T21:00:22.752Z,31.40
2019-02-17T21:02:51.061Z,27.77
2019-02-17T21:05:19.337Z,35.80
2019-02-17T21:07:47.608Z,30.90
2019-02-17T21:10:15.885Z,31.48
2019-02-17T21:12:44.221Z,29.42
2019-02-17T21:15:14.912Z,30.02
2019-02-17T21:17:43.184Z,31.15
2019-02-17T21:20:11.450Z,27.73
2019-02-17T21:22:39.723Z,27.15
2019-02-17T21:25:12.999Z,26.82
2019-02-17T21:27:41.266Z,30.88
2019-02-17T21:30:29.043Z,25.70
2019-02-17T21:32:57.311Z,26.97
2019-02-17T21:35:26.557Z,26.62
2019-02-17T21:37:54.811Z,27.10
2019-02-17T21:40:23.444Z,23.85
2019-02-17T21:42:51.699Z,25.43
2019-02-17T21:45:19.982Z,26.55
2019-02-17T21:47:48.238Z,24.75
2019-02-17T21:50:16.518Z,30.17
2019-02-17T21:52:44.775Z,30.30
2019-02-17T21:55:14.964Z,26.75
2019-02-17T21:57:43.221Z,33.30
2019-02-17T22:00:17.701Z,26.45
2019-02-17T22:02:45.983Z,31.57
2019-02-17T22:05:14.254Z,28.95
2019-02-17T22:07:42.584Z,28.02
2019-02-17T22:10:13.929Z,29.57
2019-02-17T22:12:42.182Z,27.32
2019-02-17T22:15:13.766Z,28.50
2019-02-17T22:17:42.031Z,28.98
2019-02-17T22:20:11.347Z,30.65
2019-02-17T22:22:39.611Z,27.87
2019-02-17T22:25:09.056Z,28.12
2019-02-17T22:27:37.342Z,29.20
2019-02-17T22:30:08.597Z,24.10
2019-02-17T22:32:36.941Z,33.73
2019-02-17T22:35:05.363Z,27.35
2019-02-17T22:37:33.614Z,28.10
2019-02-17T22:40:01.920Z,29.37
2019-02-17T22:42:30.176Z,28.70
2019-02-17T22:44:58.465Z,31.00
2019-02-17T22:47:26.831Z,24.12
2019-02-17T22:49:55.128Z,28.20
2019-02-17T22:52:23.451Z,29.67
2019-02-17T22:54:51.708Z,29.65
2019-02-17T22:57:19.979Z,28.73
2019-02-17T22:59:48.238Z,30.68
2019-02-17T23:02:16.596Z,29.20
2019-02-17T23:04:44.846Z,27.40
2019-02-17T23:07:13.162Z,28.27
2019-02-17T23:09:41.432Z,29.77
2019-02-17T23:12:09.755Z,28.70
2019-02-17T23:14:38.035Z,30.68
2019-02-17T23:17:06.324Z,30.05
2019-02-17T23:19:34.663Z,28.47
2019-02-17T23:22:02.915Z,27.07
2019-02-17T23:24:31.195Z,28.98
2019-02-17T23:26:59.456Z,27.85
2019-02-17T23:29:27.727Z,27.62
2019-02-17T23:31:55.989Z,29.60
2019-02-17T23:34:24.278Z,29.87
2019-02-17T23:36:52.599Z,29.27
2019-02-17T23:39:20.907Z,26.97
2019-02-17T23:41:49.161Z,29.12
2019-02-17T23:44:17.430Z,25.12
2019-02-17T23:46:45.703Z,28.02
2019-02-17T23:49:13.988Z,25.35
2019-02-17T23:51:42.316Z,33.45
2019-02-17T23:54:10.580Z,27.25
2019-02-17T23:56:38.846Z,23.80
2019-02-17T23:59:07.111Z,29.75
